Pays
Station

 

Conditions  météo  pour  Fagernes Leirin  -  Norvège    Norvège

  
6 °C
    
 
 

METAR pour Fagernes Leirin :

ENFG 220850Z 19007KT CAVOK 06/M03 Q1014

 

Voici le bulletin pour Fagernes Leirin - Norvège.
 
Le bulletin a été fait il y a 710 heures et 12 minutes, à 08:50 UTC .
Le vent soufflait à la vitesse de 3.6 mètres par seconde de Sud (190°).
 
La température était de 6 °C, avec un point de rosée à -3 °C.
La pression atmosphérique était de 1014 hPa.
L'humidité relative était de 52.4%.
 
Il y avait pas de nuages en-dessous de 1500 mètres et pas de cumulonimbus.
 
La visibilité globale était de supérieure à 10 kilomètres.
 

 
 
 

Pays :   A   B   C   D   E   F   G   H   I   J   K   L   M   N   O   P   Q   R   S   T   U   V   W   Y   Z

 

Partenaires :  Info Météo avec Met'info
Météo Marine avec MeteoMarine.net
Infos Site  |  Infos Légales  |  Crédits  |  Confidentialité
Contactez-nous  |  Ajouter aux favoris
© 2013-2018 METAR - Tous droits réservés